TimeEDT,TemperatureF,Dew PointF,Humidity,Sea Level PressureIn,VisibilityMPH,Wind Direction,Wind SpeedMPH,Gust SpeedMPH,PrecipitationIn,Events,Conditions,WindDirDegrees,DateUTC
12:52 AM,37.4,37.4,100,-9999,0.0,NW,16.1,-,N/A,Fog,Light Drizzle,320,2013-06-12 04:52:00
1:47 AM,37.4,37.4,100,-9999,0.0,NNW,21.9,-,N/A,Fog,Light Drizzle,330,2013-06-12 05:47:00
2:55 AM,35.6,35.6,100,-9999,0.0,NNW,26.5,36.8,N/A,Fog,Light Drizzle,330,2013-06-12 06:55:00
3:53 AM,35.6,35.6,100,-9999,0.0,NNW,27.6,-,N/A,Fog,Drizzle,330,2013-06-12 07:53:00
4:54 AM,35.6,35.6,100,-9999,0.1,North,27.6,-,N/A,Fog,Light Drizzle,350,2013-06-12 08:54:00
5:49 AM,35.6,35.6,100,-9999,0.1,NNW,27.6,34.5,N/A,Fog,Light Drizzle,340,2013-06-12 09:49:00
6:51 AM,35.6,35.6,100,-9999,0.1,NNW,31.1,35.7,N/A,Fog,Light Drizzle,340,2013-06-12 10:51:00
7:48 AM,35.6,35.6,100,-9999,0.1,North,33.4,40.3,N/A,Fog,Drizzle,350,2013-06-12 11:48:00
8:51 AM,35.6,35.6,100,-9999,0.1,North,33.4,43.7,N/A,Fog-Rain,Light Rain,360,2013-06-12 12:51:00
9:50 AM,35.6,35.6,100,-9999,0.1,North,38.0,50.6,N/A,Fog-Rain,Light Rain,360,2013-06-12 13:50:00
10:53 AM,37.4,37.4,100,-9999,0.1,North,40.3,50.6,N/A,Fog-Rain,Rain,10,2013-06-12 14:53:00
11:52 AM,37.4,37.4,100,-9999,0.1,North,41.4,54.1,N/A,Fog-Rain,Light Rain,10,2013-06-12 15:52:00
12:48 PM,37.4,37.4,100,-9999,0.1,North,46.0,57.5,N/A,Fog-Rain,Light Rain,10,2013-06-12 16:48:00
1:51 PM,37.4,37.4,100,-9999,0.1,NNE,43.7,57.5,N/A,Fog-Rain,Light Rain,20,2013-06-12 17:51:00
2:50 PM,37.4,37.4,100,-9999,0.0,NNE,36.8,51.8,N/A,Fog-Rain,Light Rain,20,2013-06-12 18:50:00
3:52 PM,37.4,37.4,100,-9999,0.0,NNE,39.1,47.2,N/A,Fog-Rain,Light Rain,20,2013-06-12 19:52:00
4:51 PM,37.4,37.4,100,-9999,0.0,North,46.0,56.4,N/A,Fog-Rain,Light Rain,10,2013-06-12 20:51:00
5:51 PM,37.4,37.4,100,-9999,0.0,NNE,48.3,57.5,N/A,Fog,Fog,20,2013-06-12 21:51:00
6:49 PM,37.4,37.4,100,-9999,0.0,NNE,41.4,54.1,N/A,Fog,Fog,30,2013-06-12 22:49:00
7:49 PM,37.4,37.4,100,-9999,0.0,NNE,35.7,44.9,N/A,Fog,Fog,30,2013-06-12 23:49:00
8:52 PM,35.6,35.6,100,-9999,0.0,North,25.3,34.5,N/A,Fog,Fog,10,2013-06-13 00:52:00
9:57 PM,37.4,35.6,93,-9999,60.0,NNE,27.6,38.0,N/A,,Overcast,20,2013-06-13 01:57:00
10:51 PM,35.6,35.6,100,-9999,0.0,North,23.0,-,N/A,Fog-Rain,Light Rain,10,2013-06-13 02:51:00
11:51 PM,37.4,37.4,100,-9999,0.1,North,28.8,32.2,N/A,Fog,Fog,360,2013-06-13 03:51:00